sensor_id;sensor_type;location;lat;lon;timestamp;pressure;altitude;pressure_sealevel;temperature;humidity
53758;BME280;39674;59.860;30.672;2024-01-16T18:32:44;98852.81;;;-14.46;100.00
53758;BME280;39674;59.860;30.672;2024-01-16T18:35:14;98853.59;;;-14.50;100.00
53758;BME280;39674;59.860;30.672;2024-01-16T18:37:44;98872.19;;;-14.48;100.00
53758;BME280;39674;59.860;30.672;2024-01-16T18:40:14;98845.78;;;-14.59;100.00
53758;BME280;39674;59.860;30.672;2024-01-16T18:42:45;98867.75;;;-14.61;100.00
53758;BME280;39674;59.860;30.672;2024-01-16T18:45:15;98849.59;;;-14.83;100.00
53758;BME280;39674;59.860;30.672;2024-01-16T18:47:45;98803.28;;;-15.17;100.00
53758;BME280;39674;59.860;30.672;2024-01-16T18:50:15;98884.38;;;-14.76;100.00
53758;BME280;39674;59.860;30.672;2024-01-16T18:52:45;98889.41;;;-14.77;100.00
53758;BME280;39674;59.860;30.672;2024-01-16T18:55:13;98898.69;;;-14.78;100.00
53758;BME280;39674;59.860;30.672;2024-01-16T18:57:43;98899.47;;;-14.82;100.00
53758;BME280;39674;59.860;30.672;2024-01-16T19:00:16;98884.88;;;-14.92;100.00
53758;BME280;39674;59.860;30.672;2024-01-16T19:02:51;98881.47;;;-14.94;100.00
53758;BME280;39674;59.860;30.672;2024-01-16T19:05:31;98916.41;;;-14.79;100.00
53758;BME280;39674;59.860;30.672;2024-01-16T19:08:04;98862.50;;;-15.12;100.00
53758;BME280;39674;59.860;30.672;2024-01-16T19:10:34;98923.22;;;-14.77;100.00
53758;BME280;39674;59.860;30.672;2024-01-16T19:13:03;98784.41;;;-15.71;100.00
53758;BME280;39674;59.860;30.672;2024-01-16T19:15:57;98922.97;;;-14.89;100.00
53758;BME280;39674;59.860;30.672;2024-01-16T19:18:29;98880.91;;;-15.19;100.00
53758;BME280;39674;59.860;30.672;2024-01-16T19:20:59;98879.34;;;-15.14;100.00
53758;BME280;39674;59.860;30.672;2024-01-16T19:23:31;98931.13;;;-15.01;100.00
53758;BME280;39674;59.860;30.672;2024-01-16T19:26:00;98939.53;;;-15.02;100.00
53758;BME280;39674;59.860;30.672;2024-01-16T19:28:30;98934.19;;;-15.16;100.00
53758;BME280;39674;59.860;30.672;2024-01-16T19:31:00;98817.09;;;-15.82;100.00
53758;BME280;39674;59.860;30.672;2024-01-16T19:33:33;98946.19;;;-15.07;100.00
53758;BME280;39674;59.860;30.672;2024-01-16T19:36:01;98944.28;;;-15.18;100.00
53758;BME280;39674;59.860;30.672;2024-01-16T19:38:33;98945.13;;;-15.17;100.00
53758;BME280;39674;59.860;30.672;2024-01-16T19:41:02;98958.69;;;-15.15;100.00
53758;BME280;39674;59.860;30.672;2024-01-16T19:43:31;98976.44;;;-15.15;100.00
53758;BME280;39674;59.860;30.672;2024-01-16T19:46:00;98886.56;;;-15.68;100.00
53758;BME280;39674;59.860;30.672;2024-01-16T19:48:29;98822.22;;;-16.14;100.00
53758;BME280;39674;59.860;30.672;2024-01-16T19:51:07;98993.84;;;-15.27;100.00
53758;BME280;39674;59.860;30.672;2024-01-16T19:53:36;98998.03;;;-15.29;100.00
53758;BME280;39674;59.860;30.672;2024-01-16T19:56:05;98945.88;;;-15.56;100.00
53758;BME280;39674;59.860;30.672;2024-01-16T19:58:35;98927.06;;;-15.68;100.00
53758;BME280;39674;59.860;30.672;2024-01-16T20:01:05;98956.91;;;-15.54;100.00
53758;BME280;39674;59.860;30.672;2024-01-16T20:03:37;98985.72;;;-15.49;100.00
53758;BME280;39674;59.860;30.672;2024-01-16T20:06:12;98975.31;;;-15.60;100.00
53758;BME280;39674;59.860;30.672;2024-01-16T20:08:41;98981.31;;;-15.56;100.00
53758;BME280;39674;59.860;30.672;2024-01-16T20:11:13;98977.81;;;-15.61;100.00
53758;BME280;39674;59.860;30.672;2024-01-16T20:13:43;98953.84;;;-15.76;100.00
53758;BME280;39674;59.860;30.672;2024-01-16T20:16:12;98995.53;;;-15.61;100.00
53758;BME280;39674;59.860;30.672;2024-01-16T20:18:44;98980.16;;;-15.69;100.00
53758;BME280;39674;59.860;30.672;2024-01-16T20:21:17;98933.84;;;-16.00;100.00
53758;BME280;39674;59.860;30.672;2024-01-16T20:23:46;98967.09;;;-15.86;100.00
53758;BME280;39674;59.860;30.672;2024-01-16T20:26:15;98984.81;;;-15.86;100.00
53758;BME280;39674;59.860;30.672;2024-01-16T20:28:44;99048.09;;;-15.51;100.00
53758;BME280;39674;59.860;30.672;2024-01-16T20:31:13;99048.84;;;-15.55;100.00
53758;BME280;39674;59.860;30.672;2024-01-16T20:33:43;99052.44;;;-15.47;100.00
53758;BME280;39674;59.860;30.672;2024-01-16T20:36:21;99048.91;;;-15.52;100.00
53758;BME280;39674;59.860;30.672;2024-01-16T20:38:50;99065.09;;;-15.47;100.00
53758;BME280;39674;59.860;30.672;2024-01-16T20:41:20;99066.63;;;-15.52;100.00
53758;BME280;39674;59.860;30.672;2024-01-16T20:43:50;99077.59;;;-15.53;100.00
53758;BME280;39674;59.860;30.672;2024-01-16T20:46:19;99072.44;;;-15.56;100.00
53758;BME280;39674;59.860;30.672;2024-01-16T20:48:49;99019.22;;;-15.91;100.00
53758;BME280;39674;59.860;30.672;2024-01-16T20:51:20;99076.53;;;-15.61;100.00
53758;BME280;39674;59.860;30.672;2024-01-16T20:53:50;99095.91;;;-15.62;100.00
53758;BME280;39674;59.860;30.672;2024-01-16T20:56:19;99095.97;;;-15.60;100.00
53758;BME280;39674;59.860;30.672;2024-01-16T20:58:48;99032.44;;;-16.02;100.00
53758;BME280;39674;59.860;30.672;2024-01-16T21:01:17;99100.38;;;-15.53;100.00
53758;BME280;39674;59.860;30.672;2024-01-16T21:03:46;99028.13;;;-16.06;100.00
53758;BME280;39674;59.860;30.672;2024-01-16T21:06:20;99107.88;;;-15.56;100.00
53758;BME280;39674;59.860;30.672;2024-01-16T21:08:49;99111.94;;;-15.63;100.00
53758;BME280;39674;59.860;30.672;2024-01-16T21:11:19;99087.81;;;-15.82;100.00
53758;BME280;39674;59.860;30.672;2024-01-16T21:13:49;99042.28;;;-16.11;100.00
53758;BME280;39674;59.860;30.672;2024-01-16T21:16:18;99012.84;;;-16.39;100.00
53758;BME280;39674;59.860;30.672;2024-01-16T21:18:47;99105.50;;;-15.82;100.00
53758;BME280;39674;59.860;30.672;2024-01-16T21:21:17;99143.81;;;-15.68;100.00
53758;BME280;39674;59.860;30.672;2024-01-16T21:23:48;99117.06;;;-15.90;100.00
53758;BME280;39674;59.860;30.672;2024-01-16T21:26:17;99104.88;;;-16.04;100.00
53758;BME280;39674;59.860;30.672;2024-01-16T21:28:46;99159.78;;;-15.71;100.00
53758;BME280;39674;59.860;30.672;2024-01-16T21:31:17;99152.91;;;-15.75;100.00
53758;BME280;39674;59.860;30.672;2024-01-16T21:33:47;99111.50;;;-16.09;100.00
53758;BME280;39674;59.860;30.672;2024-01-16T21:36:17;99041.97;;;-16.52;100.00
53758;BME280;39674;59.860;30.672;2024-01-16T21:38:50;99105.41;;;-16.16;100.00
53758;BME280;39674;59.860;30.672;2024-01-16T21:41:20;99166.25;;;-15.82;100.00
53758;BME280;39674;59.860;30.672;2024-01-16T21:43:51;99161.84;;;-15.88;100.00
53758;BME280;39674;59.860;30.672;2024-01-16T21:46:20;99157.47;;;-15.93;100.00
53758;BME280;39674;59.860;30.672;2024-01-16T21:48:50;99164.34;;;-15.89;100.00
53758;BME280;39674;59.860;30.672;2024-01-16T21:51:19;99157.13;;;-16.06;100.00
53758;BME280;39674;59.860;30.672;2024-01-16T21:53:49;99155.03;;;-16.19;100.00
53758;BME280;39674;59.860;30.672;2024-01-16T21:56:19;99163.97;;;-16.02;100.00
53758;BME280;39674;59.860;30.672;2024-01-16T21:58:47;99198.13;;;-15.87;100.00
53758;BME280;39674;59.860;30.672;2024-01-16T22:01:18;99052.13;;;-16.78;100.00
53758;BME280;39674;59.860;30.672;2024-01-16T22:03:47;99200.75;;;-15.84;100.00
53758;BME280;39674;59.860;30.672;2024-01-16T22:06:17;99141.56;;;-16.18;100.00
53758;BME280;39674;59.860;30.672;2024-01-16T22:08:52;99096.22;;;-16.41;100.00
53758;BME280;39674;59.860;30.672;2024-01-16T22:11:21;99160.09;;;-16.19;100.00
53758;BME280;39674;59.860;30.672;2024-01-16T22:13:49;99201.44;;;-15.90;100.00
53758;BME280;39674;59.860;30.672;2024-01-16T22:16:18;99190.00;;;-16.06;100.00
53758;BME280;39674;59.860;30.672;2024-01-16T22:18:47;99147.69;;;-16.39;100.00
53758;BME280;39674;59.860;30.672;2024-01-16T22:21:16;99210.28;;;-16.04;100.00
53758;BME280;39674;59.860;30.672;2024-01-16T22:23:44;99220.44;;;-16.03;100.00
53758;BME280;39674;59.860;30.672;2024-01-16T22:26:15;99207.44;;;-16.14;100.00
53758;BME280;39674;59.860;30.672;2024-01-16T22:28:44;99131.06;;;-16.58;100.00
53758;BME280;39674;59.860;30.672;2024-01-16T22:31:13;99229.44;;;-16.11;100.00
53758;BME280;39674;59.860;30.672;2024-01-16T22:33:43;99184.38;;;-16.50;100.00
53758;BME280;39674;59.860;30.672;2024-01-16T22:36:11;99243.63;;;-16.16;100.00
53758;BME280;39674;59.860;30.672;2024-01-16T22:38:40;99223.53;;;-16.39;100.00
53758;BME280;39674;59.860;30.672;2024-01-16T22:41:09;99226.75;;;-16.43;100.00
53758;BME280;39674;59.860;30.672;2024-01-16T22:43:39;99130.28;;;-17.10;100.00
53758;BME280;39674;59.860;30.672;2024-01-16T22:46:09;99239.06;;;-16.54;100.00
53758;BME280;39674;59.860;30.672;2024-01-16T22:48:38;99256.88;;;-16.49;100.00
53758;BME280;39674;59.860;30.672;2024-01-16T22:51:07;99197.50;;;-16.88;100.00
53758;BME280;39674;59.860;30.672;2024-01-16T22:53:35;99292.59;;;-16.40;100.00
53758;BME280;39674;59.860;30.672;2024-01-16T22:56:04;99251.41;;;-16.62;100.00
53758;BME280;39674;59.860;30.672;2024-01-16T22:58:33;99205.75;;;-16.93;100.00
53758;BME280;39674;59.860;30.672;2024-01-16T23:01:03;99289.81;;;-16.48;100.00
53758;BME280;39674;59.860;30.672;2024-01-16T23:03:34;99294.75;;;-16.51;100.00
53758;BME280;39674;59.860;30.672;2024-01-16T23:06:03;99294.69;;;-16.52;100.00
53758;BME280;39674;59.860;30.672;2024-01-16T23:08:32;99297.97;;;-16.55;100.00
53758;BME280;39674;59.860;30.672;2024-01-16T23:11:01;99191.47;;;-17.17;100.00
53758;BME280;39674;59.860;30.672;2024-01-16T23:13:30;99300.22;;;-16.63;100.00
53758;BME280;39674;59.860;30.672;2024-01-16T23:15:58;99205.81;;;-17.16;100.00
53758;BME280;39674;59.860;30.672;2024-01-16T23:18:29;99311.84;;;-16.68;100.00
53758;BME280;39674;59.860;30.672;2024-01-16T23:20:59;99330.19;;;-16.73;100.00
53758;BME280;39674;59.860;30.672;2024-01-16T23:23:28;99273.28;;;-17.12;100.00
53758;BME280;39674;59.860;30.672;2024-01-16T23:25:57;99298.22;;;-16.97;100.00
53758;BME280;39674;59.860;30.672;2024-01-16T23:28:26;99288.53;;;-17.09;100.00
53758;BME280;39674;59.860;30.672;2024-01-16T23:30:54;99295.41;;;-17.05;100.00
53758;BME280;39674;59.860;30.672;2024-01-16T23:33:23;99352.84;;;-16.75;100.00
53758;BME280;39674;59.860;30.672;2024-01-16T23:35:54;99345.81;;;-16.84;100.00
53758;BME280;39674;59.860;30.672;2024-01-16T23:38:24;99273.88;;;-17.42;100.00
53758;BME280;39674;59.860;30.672;2024-01-16T23:40:55;99343.66;;;-16.97;100.00
53758;BME280;39674;59.860;30.672;2024-01-16T23:43:25;99348.09;;;-16.91;100.00
53758;BME280;39674;59.860;30.672;2024-01-16T23:45:55;99318.50;;;-17.18;100.00
53758;BME280;39674;59.860;30.672;2024-01-16T23:48:27;99345.53;;;-16.93;100.00
53758;BME280;39674;59.860;30.672;2024-01-16T23:50:58;99360.13;;;-16.84;100.00
53758;BME280;39674;59.860;30.672;2024-01-16T23:53:27;99357.19;;;-16.97;100.00
53758;BME280;39674;59.860;30.672;2024-01-16T23:55:56;99292.44;;;-17.40;100.00
53758;BME280;39674;59.860;30.672;2024-01-16T23:58:24;99377.47;;;-16.93;100.00
